Orbital elements of COSMOS 970 DEB
| Launched | 20 December 1977 |
| Flight ended | – |
| Launch site | Tyuratam Missile and Space Center, Kazakhstan (Also known as Baikonur Cosmodrome) |
| Owner | Commonwealth of Independent States (former USSR) |
| NORAD ID | 17732 |
| Date fetched |
Epoch osculation |
Inc. [°] |
Ecc. | RA asc node [hr] |
Arg Peri. [°] |
Mean anom [°] |
Mean motion [rev/day] |
Abs. mag |
| Date fetched |
Epoch osculation |
Inc. [°] |
Ecc. | RA asc node [hr] |
Arg Peri. [°] |
Mean anom [°] |
Mean motion [rev/day] |
Abs. mag |
| 2026 May 03 17:57 | 2026 Apr 29 06:08:45 | 65.8065 | 0.01727 | 3.5308 | 244.1602 | 114.1577 | 13.99935 | – |
| 2026 May 02 17:57 | 2026 Apr 29 06:08:45 | 65.8065 | 0.01727 | 3.5308 | 244.1602 | 114.1577 | 13.99935 | – |
| 2026 May 01 17:56 | 2026 Apr 29 06:08:45 | 65.8065 | 0.01727 | 3.5308 | 244.1602 | 114.1577 | 13.99935 | – |
| 2026 Apr 30 17:56 | 2026 Apr 29 06:08:45 | 65.8065 | 0.01727 | 3.5308 | 244.1602 | 114.1577 | 13.99935 | – |
| 2026 Apr 29 17:57 | 2026 Apr 24 06:07:38 | 65.8058 | 0.01732 | 4.3911 | 246.6137 | 114.1577 | 13.99935 | – |
| 2026 Apr 28 17:56 | 2026 Apr 24 06:07:38 | 65.8058 | 0.01732 | 4.3911 | 246.6137 | 114.1577 | 13.99935 | – |
| 2026 Apr 27 17:58 | 2026 Apr 24 06:07:38 | 65.8058 | 0.01732 | 4.3911 | 246.6137 | 114.1577 | 13.99935 | – |
| 2026 Apr 26 17:58 | 2026 Apr 24 06:07:38 | 65.8058 | 0.01732 | 4.3911 | 246.6137 | 114.1577 | 13.99935 | – |
| 2026 Apr 25 17:58 | 2026 Apr 24 06:07:38 | 65.8058 | 0.01732 | 4.3911 | 246.6137 | 114.1577 | 13.99935 | – |
| 2026 Apr 24 17:59 | 2026 Apr 24 06:07:38 | 65.8058 | 0.01732 | 4.3911 | 246.6137 | 114.1577 | 13.99935 | – |
| 2026 Apr 23 17:57 | 2026 Apr 19 04:23:35 | 65.8049 | 0.01736 | 5.2637 | 249.0719 | 114.1577 | 13.99935 | – |
| 2026 Apr 22 17:57 | 2026 Apr 19 04:23:35 | 65.8049 | 0.01736 | 5.2637 | 249.0719 | 114.1577 | 13.99935 | – |
| 2026 Apr 21 17:57 | 2026 Apr 19 04:23:35 | 65.8049 | 0.01736 | 5.2637 | 249.0719 | 114.1577 | 13.99935 | – |
| 2026 Apr 20 17:57 | 2026 Apr 19 04:23:35 | 65.8049 | 0.01736 | 5.2637 | 249.0719 | 114.1577 | 13.99935 | – |
| 2026 Apr 19 17:58 | 2026 Apr 19 04:23:35 | 65.8049 | 0.01736 | 5.2637 | 249.0719 | 114.1577 | 13.99935 | – |
| 2026 Apr 18 17:56 | 2026 Apr 13 06:04:57 | 65.8047 | 0.01742 | 6.2839 | 251.9182 | 114.1577 | 13.99935 | – |
| 2026 Apr 16 17:57 | 2026 Apr 13 06:04:57 | 65.8047 | 0.01742 | 6.2839 | 251.9182 | 114.1577 | 13.99935 | – |
| 2026 Apr 14 17:57 | 2026 Apr 13 06:04:57 | 65.8047 | 0.01742 | 6.2839 | 251.9182 | 114.1577 | 13.99935 | – |
| 2026 Apr 13 17:57 | 2026 Apr 13 06:04:57 | 65.8047 | 0.01742 | 6.2839 | 251.9182 | 114.1577 | 13.99935 | – |
| 2026 Apr 12 17:57 | 2026 Apr 08 00:55:00 | 65.8050 | 0.01744 | 7.1811 | 254.3807 | 114.1577 | 13.99935 | – |
| 2026 Apr 11 17:57 | 2026 Apr 08 00:55:00 | 65.8050 | 0.01744 | 7.1811 | 254.3807 | 114.1577 | 13.99935 | – |
| 2026 Apr 10 17:58 | 2026 Apr 08 00:55:00 | 65.8050 | 0.01744 | 7.1811 | 254.3807 | 114.1577 | 13.99935 | – |
| 2026 Apr 09 18:01 | 2026 Apr 08 00:55:00 | 65.8050 | 0.01744 | 7.1811 | 254.3807 | 114.1577 | 13.99935 | – |
| 2026 Apr 08 17:57 | 2026 Apr 08 00:55:00 | 65.8050 | 0.01744 | 7.1811 | 254.3807 | 114.1577 | 13.99935 | – |
| 2026 Apr 07 17:57 | 2026 Apr 01 02:35:51 | 65.8059 | 0.01745 | 8.3733 | 257.6184 | 114.1577 | 13.99935 | – |
| 2026 Apr 06 17:57 | 2026 Apr 01 02:35:51 | 65.8059 | 0.01745 | 8.3733 | 257.6184 | 114.1577 | 13.99935 | – |